WAT2319 PANC-EBLG
Flight info
| Callsign | WAT2319 |
|---|---|
| Flight time | N/A |
| Altitude | 27000 |
| Route | ENA DCT BGQ Q43 CAWIN/N0499F300 Q43 FAI/N0501F290 J120 FYU J167 POTAT DCT 70N130W/N0495F310 70N120W 70N100W 70N080W/M086F310 DCT ADSAM/M086F330 DCT 69N050W 67N040W 65N030W 62N020W DCT BALIX/N0495F330 DCT NINEX/N0491F350 DCT STN DCT GOW DCT ELBUS UL612 HON L15 BIG Q70 VABIK/N0471F230 Q70 KOK |
| Aircraft | B744/H-SDE3FGHIM1M2RWXY/LB1 |
Departure
| Time | 2026-05-04 05:47 |
|---|---|
| Airport | Ted Stevens Anchorage International Airport (PANC) |
Arrival
| Time | N/A |
|---|---|
| Airport | Liège Airport (EBLG) |
| Time | Latitude | Longitude | Altitude | Speed | Heading |
|---|---|---|---|---|---|
| 2026-05-04 05:29 | 61.17458 | -149.99114 | 165 ft | 0 kts | 69° |
| 2026-05-04 05:41 | 61.17459 | -149.99106 | 165 ft | 3 kts | 69° |
| 2026-05-04 05:41 | 61.17468 | -149.99019 | 165 ft | 6 kts | 102° |
| 2026-05-04 05:41 | 61.17437 | -149.98930 | 165 ft | 9 kts | 146° |
| 2026-05-04 05:42 | 61.17362 | -149.98862 | 165 ft | 12 kts | 159° |
| 2026-05-04 05:42 | 61.17278 | -149.98795 | 165 ft | 12 kts | 162° |
| 2026-05-04 05:42 | 61.17196 | -149.98740 | 165 ft | 12 kts | 160° |
| 2026-05-04 05:42 | 61.17128 | -149.98770 | 165 ft | 10 kts | 251° |
| 2026-05-04 05:43 | 61.17123 | -149.98933 | 165 ft | 13 kts | 271° |
| 2026-05-04 05:43 | 61.17123 | -149.99185 | 165 ft | 22 kts | 270° |
| 2026-05-04 05:43 | 61.17126 | -149.99573 | 165 ft | 30 kts | 270° |
| 2026-05-04 05:45 | 61.16976 | -149.99962 | 166 ft | 67 kts | 91° |
| 2026-05-04 05:45 | 61.16974 | -149.98498 | 166 ft | 127 kts | 89° |
| 2026-05-04 05:47 | 61.17510 | -149.81575 | 1259 ft | 194 kts | 117° |
| 2026-05-04 05:47 | 61.16634 | -149.79332 | 1126 ft | 211 kts | 144° |
| 2026-05-04 05:47 | 61.15238 | -149.78046 | 1026 ft | 232 kts | 171° |
| 2026-05-04 05:48 | 61.13557 | -149.78101 | 1066 ft | 252 kts | 194° |
| 2026-05-04 05:48 | 61.11973 | -149.79552 | 1525 ft | 255 kts | 212° |
| 2026-05-04 05:48 | 61.10525 | -149.81651 | 2029 ft | 257 kts | 220° |
| 2026-05-04 05:48 | 61.09334 | -149.84474 | 2447 ft | 262 kts | 234° |
| 2026-05-04 05:49 | 61.08303 | -149.87538 | 2942 ft | 263 kts | 233° |
| 2026-05-04 05:49 | 61.07215 | -149.90604 | 3383 ft | 264 kts | 233° |
| 2026-05-04 05:49 | 61.06135 | -149.93658 | 3815 ft | 267 kts | 232° |
| 2026-05-04 05:49 | 61.05040 | -149.96724 | 4283 ft | 267 kts | 233° |
| 2026-05-04 05:51 | 60.97248 | -150.18967 | 6802 ft | 282 kts | 234° |
| 2026-05-04 05:51 | 60.96107 | -150.22258 | 7164 ft | 284 kts | 234° |
| 2026-05-04 05:52 | 60.94965 | -150.25545 | 7556 ft | 282 kts | 234° |
| 2026-05-04 05:52 | 60.93818 | -150.28778 | 7927 ft | 281 kts | 234° |
| 2026-05-04 05:52 | 60.92677 | -150.32059 | 8237 ft | 283 kts | 233° |
| 2026-05-04 05:52 | 60.91522 | -150.35353 | 8502 ft | 286 kts | 234° |
| 2026-05-04 05:53 | 60.90355 | -150.38644 | 8781 ft | 288 kts | 232° |
| 2026-05-04 05:54 | 60.82031 | -150.62213 | 10503 ft | 300 kts | 233° |
| 2026-05-04 05:55 | 60.80799 | -150.65712 | 10578 ft | 307 kts | 232° |
| 2026-05-04 05:55 | 60.79539 | -150.69243 | 10686 ft | 313 kts | 232° |
| 2026-05-04 05:55 | 60.78249 | -150.72870 | 10917 ft | 316 kts | 232° |
| 2026-05-04 05:55 | 60.76971 | -150.76489 | 11203 ft | 315 kts | 232° |
| 2026-05-04 05:56 | 60.75681 | -150.80098 | 11540 ft | 313 kts | 232° |
| 2026-05-04 05:56 | 60.74404 | -150.83693 | 11852 ft | 313 kts | 232° |
| 2026-05-04 05:56 | 60.73135 | -150.87238 | 12134 ft | 313 kts | 232° |
| 2026-05-04 05:56 | 60.71850 | -150.90830 | 12403 ft | 314 kts | 231° |
| 2026-05-04 05:57 | 60.70570 | -150.94405 | 12684 ft | 314 kts | 231° |
| 2026-05-04 05:57 | 60.69283 | -150.97992 | 13005 ft | 312 kts | 231° |
| 2026-05-04 05:57 | 60.68016 | -151.01531 | 13345 ft | 309 kts | 231° |
| 2026-05-04 05:57 | 60.66742 | -151.05061 | 13631 ft | 309 kts | 231° |
| 2026-05-04 05:58 | 60.65470 | -151.08574 | 13855 ft | 310 kts | 231° |
| 2026-05-04 05:58 | 60.64187 | -151.12100 | 14088 ft | 310 kts | 231° |
| 2026-05-04 05:58 | 60.62912 | -151.15607 | 14320 ft | 310 kts | 231° |
| 2026-05-04 05:58 | 60.61621 | -151.19122 | 14540 ft | 311 kts | 231° |
| 2026-05-04 05:59 | 60.60245 | -151.22545 | 14727 ft | 311 kts | 221° |
| 2026-05-04 05:59 | 60.58483 | -151.25023 | 14914 ft | 310 kts | 204° |
| 2026-05-04 05:59 | 60.56417 | -151.26209 | 15103 ft | 313 kts | 186° |
| 2026-05-04 05:59 | 60.54252 | -151.25983 | 15286 ft | 318 kts | 169° |
| 2026-05-04 06:00 | 60.52170 | -151.24335 | 15469 ft | 326 kts | 153° |
| 2026-05-04 06:00 | 60.50400 | -151.21402 | 15648 ft | 335 kts | 136° |
| 2026-05-04 06:00 | 60.49108 | -151.17438 | 15823 ft | 346 kts | 119° |
| 2026-05-04 06:00 | 60.48411 | -151.12741 | 15992 ft | 356 kts | 102° |
| 2026-05-04 06:01 | 60.48389 | -151.07663 | 16142 ft | 367 kts | 85° |
| 2026-05-04 06:01 | 60.49064 | -151.02673 | 16277 ft | 375 kts | 68° |
| 2026-05-04 06:03 | 60.64773 | -150.94165 | 17281 ft | 375 kts | 335° |
| 2026-05-04 06:03 | 60.67271 | -150.95601 | 17444 ft | 381 kts | 344° |
| 2026-05-04 06:05 | 60.85610 | -150.87819 | 18580 ft | 402 kts | 25° |
| 2026-05-04 06:05 | 60.90567 | -150.82353 | 18833 ft | 407 kts | 28° |
| 2026-05-04 06:05 | 60.93020 | -150.79468 | 18965 ft | 409 kts | 29° |
| 2026-05-04 06:06 | 60.95462 | -150.76517 | 19103 ft | 411 kts | 29° |
| 2026-05-04 06:06 | 60.97900 | -150.73528 | 19252 ft | 412 kts | 30° |
| 2026-05-04 06:06 | 61.00367 | -150.70458 | 19403 ft | 413 kts | 30° |
| 2026-05-04 06:06 | 61.02802 | -150.67392 | 19553 ft | 415 kts | 30° |
| 2026-05-04 06:07 | 61.05278 | -150.64249 | 19706 ft | 416 kts | 30° |
| 2026-05-04 06:07 | 61.07712 | -150.61153 | 19855 ft | 417 kts | 30° |
| 2026-05-04 06:07 | 61.10175 | -150.58006 | 20005 ft | 418 kts | 30° |
| 2026-05-04 06:07 | 61.12625 | -150.54860 | 20139 ft | 419 kts | 30° |
| 2026-05-04 06:08 | 61.15152 | -150.51604 | 20272 ft | 420 kts | 30° |
| 2026-05-04 06:08 | 61.17632 | -150.48413 | 20403 ft | 421 kts | 30° |
| 2026-05-04 06:08 | 61.20115 | -150.45203 | 20532 ft | 422 kts | 30° |
| 2026-05-04 06:08 | 61.22598 | -150.41980 | 20663 ft | 423 kts | 30° |
| 2026-05-04 06:09 | 61.25085 | -150.38751 | 20796 ft | 424 kts | 30° |
| 2026-05-04 06:09 | 61.27581 | -150.35510 | 20928 ft | 425 kts | 30° |
| 2026-05-04 06:11 | 61.45287 | -150.12293 | 21674 ft | 435 kts | 30° |
| 2026-05-04 06:11 | 61.47845 | -150.08925 | 21795 ft | 435 kts | 30° |
| 2026-05-04 06:13 | 61.66922 | -149.91438 | 22549 ft | 432 kts | 9° |
| 2026-05-04 06:14 | 61.84426 | -149.81969 | 23250 ft | 436 kts | 9° |
| 2026-05-04 06:14 | 61.87350 | -149.80368 | 23354 ft | 437 kts | 8° |
| 2026-05-04 06:15 | 61.90313 | -149.78744 | 23456 ft | 438 kts | 8° |
| 2026-05-04 06:15 | 61.93254 | -149.77122 | 23555 ft | 439 kts | 8° |
| 2026-05-04 06:15 | 61.96205 | -149.75490 | 23656 ft | 440 kts | 8° |
| 2026-05-04 06:15 | 61.99145 | -149.73871 | 23756 ft | 441 kts | 8° |
| 2026-05-04 06:16 | 62.02111 | -149.72240 | 23869 ft | 442 kts | 8° |
| 2026-05-04 06:16 | 62.05065 | -149.70605 | 23989 ft | 443 kts | 8° |
| 2026-05-04 06:16 | 62.08065 | -149.68939 | 24100 ft | 444 kts | 8° |
| 2026-05-04 06:16 | 62.11051 | -149.67282 | 24192 ft | 445 kts | 9° |
| 2026-05-04 06:17 | 62.14034 | -149.65626 | 24256 ft | 448 kts | 9° |
| 2026-05-04 06:17 | 62.16978 | -149.63980 | 24324 ft | 450 kts | 10° |
| 2026-05-04 06:17 | 62.19994 | -149.62282 | 24396 ft | 452 kts | 10° |
| 2026-05-04 06:17 | 62.23063 | -149.60529 | 24468 ft | 454 kts | 10° |
| 2026-05-04 06:18 | 62.26104 | -149.58792 | 24511 ft | 455 kts | 10° |
| 2026-05-04 06:18 | 62.29159 | -149.57054 | 24560 ft | 456 kts | 10° |
| 2026-05-04 06:18 | 62.32232 | -149.55307 | 24619 ft | 457 kts | 10° |
| 2026-05-04 06:20 | 62.53677 | -149.43030 | 25257 ft | 456 kts | 9° |
| 2026-05-04 06:20 | 62.56728 | -149.41269 | 25386 ft | 456 kts | 9° |
| 2026-05-04 06:21 | 62.69105 | -149.34116 | 25806 ft | 458 kts | 10° |
| 2026-05-04 06:21 | 62.72213 | -149.32315 | 25872 ft | 459 kts | 9° |
| 2026-05-04 06:22 | 62.75302 | -149.30512 | 25963 ft | 460 kts | 9° |
| 2026-05-04 06:22 | 62.78442 | -149.28676 | 26024 ft | 461 kts | 9° |
| 2026-05-04 06:25 | 63.18835 | -149.04807 | 26006 ft | 461 kts | 9° |
| 2026-05-04 06:25 | 63.21916 | -149.02934 | 26043 ft | 461 kts | 9° |
| 2026-05-04 06:26 | 63.25047 | -149.00958 | 26069 ft | 461 kts | 10° |
| 2026-05-04 06:26 | 63.28128 | -148.98892 | 26086 ft | 463 kts | 11° |
| 2026-05-04 06:26 | 63.31235 | -148.96931 | 26090 ft | 460 kts | 7° |
| 2026-05-04 06:26 | 63.34351 | -148.95203 | 26086 ft | 461 kts | 8° |
| 2026-05-04 06:27 | 63.46910 | -148.87617 | 26020 ft | 462 kts | 8° |
| 2026-05-04 06:28 | 63.50049 | -148.85687 | 26011 ft | 462 kts | 8° |
| 2026-05-04 06:28 | 63.53135 | -148.83797 | 26007 ft | 461 kts | 8° |
| 2026-05-04 06:28 | 63.56246 | -148.81873 | 26010 ft | 461 kts | 8° |
| 2026-05-04 06:28 | 63.59348 | -148.79952 | 26017 ft | 461 kts | 8° |
| 2026-05-04 06:29 | 63.62441 | -148.78032 | 26033 ft | 462 kts | 8° |
| 2026-05-04 06:29 | 63.65561 | -148.76091 | 26074 ft | 464 kts | 8° |
| 2026-05-04 06:29 | 63.68718 | -148.74116 | 26181 ft | 464 kts | 8° |
| 2026-05-04 06:29 | 63.71849 | -148.72153 | 26268 ft | 465 kts | 8° |
| 2026-05-04 06:30 | 63.74997 | -148.70178 | 26359 ft | 465 kts | 8° |
| 2026-05-04 06:30 | 63.78120 | -148.68224 | 26456 ft | 466 kts | 8° |
| 2026-05-04 06:30 | 63.81319 | -148.66206 | 26566 ft | 466 kts | 8° |
| 2026-05-04 06:30 | 63.84465 | -148.64212 | 26678 ft | 467 kts | 8° |
| 2026-05-04 06:31 | 63.87583 | -148.62242 | 26788 ft | 467 kts | 8° |
| 2026-05-04 06:31 | 63.89716 | -148.60898 | 26864 ft | 468 kts | 8° |
| 2026-05-04 06:31 | 63.93901 | -148.58237 | 27016 ft | 468 kts | 8° |
| 2026-05-04 06:31 | 63.97033 | -148.56236 | 27097 ft | 470 kts | 8° |
| 2026-05-04 06:32 | 64.00188 | -148.54227 | 27151 ft | 473 kts | 8° |
| 2026-05-04 06:33 | 64.22932 | -148.39535 | 27156 ft | 500 kts | 8° |
| 2026-05-04 06:34 | 64.26267 | -148.37360 | 27147 ft | 503 kts | 8° |
| 2026-05-04 06:34 | 64.29657 | -148.35139 | 27144 ft | 507 kts | 8° |
| 2026-05-04 06:34 | 64.33079 | -148.32899 | 27137 ft | 511 kts | 9° |
| 2026-05-04 06:34 | 64.36554 | -148.30623 | 27138 ft | 515 kts | 9° |
| 2026-05-04 06:35 | 64.40012 | -148.28323 | 27142 ft | 519 kts | 9° |
| 2026-05-04 06:36 | 64.64890 | -148.11708 | 27114 ft | 534 kts | 9° |
| 2026-05-04 06:37 | 64.68423 | -148.09375 | 27070 ft | 522 kts | 8° |
| 2026-05-04 06:37 | 64.71896 | -148.07063 | 27022 ft | 512 kts | 9° |
| 2026-05-04 06:37 | 64.75258 | -148.04759 | 26994 ft | 506 kts | 9° |
| 2026-05-04 06:37 | 64.78643 | -148.02321 | 26976 ft | 503 kts | 13° |
| 2026-05-04 06:38 | 64.81878 | -147.98807 | 26955 ft | 505 kts | 26° |
| 2026-05-04 06:38 | 64.84852 | -147.94490 | 26977 ft | 499 kts | 27° |
| 2026-05-04 06:40 | 65.05962 | -147.64261 | 26733 ft | 525 kts | 26° |
| 2026-05-04 06:40 | 65.09062 | -147.59735 | 26834 ft | 527 kts | 26° |
| 2026-05-04 06:40 | 65.12242 | -147.55112 | 26940 ft | 527 kts | 25° |
| 2026-05-04 06:40 | 65.15376 | -147.50543 | 27012 ft | 528 kts | 26° |
| 2026-05-04 06:41 | 65.18549 | -147.45894 | 27125 ft | 528 kts | 26° |
| 2026-05-04 06:41 | 65.21645 | -147.41339 | 27253 ft | 527 kts | 26° |
| 2026-05-04 06:41 | 65.24771 | -147.36716 | 27387 ft | 528 kts | 26° |
| 2026-05-04 06:41 | 65.27921 | -147.32056 | 27494 ft | 529 kts | 26° |
| 2026-05-04 06:42 | 65.31072 | -147.27379 | 27595 ft | 530 kts | 27° |
| 2026-05-04 06:42 | 65.34194 | -147.22700 | 27702 ft | 531 kts | 26° |
| 2026-05-04 06:42 | 65.37337 | -147.18019 | 27826 ft | 531 kts | 26° |
| 2026-05-04 06:44 | 65.59291 | -146.84941 | 28655 ft | 527 kts | 25° |
| 2026-05-04 06:44 | 65.62369 | -146.80250 | 28770 ft | 526 kts | 25° |
| 2026-05-04 06:44 | 65.65479 | -146.75478 | 28870 ft | 526 kts | 25° |
| 2026-05-04 06:45 | 65.71683 | -146.65981 | 29009 ft | 530 kts | 25° |
| 2026-05-04 06:45 | 65.77929 | -146.56358 | 29084 ft | 535 kts | 25° |
| 2026-05-04 06:46 | 65.84264 | -146.46533 | 29121 ft | 541 kts | 25° |
| 2026-05-04 06:46 | 65.90624 | -146.36542 | 29107 ft | 549 kts | 25° |
| 2026-05-04 06:48 | 66.13600 | -146.00081 | 29138 ft | 572 kts | 25° |
| 2026-05-04 06:48 | 66.16980 | -145.94667 | 29152 ft | 575 kts | 26° |
| 2026-05-04 06:50 | 66.43825 | -145.50842 | 29177 ft | 573 kts | 26° |
| 2026-05-04 06:51 | 66.50487 | -145.39934 | 29179 ft | 570 kts | 26° |
| 2026-05-04 06:51 | 66.56960 | -145.28430 | 29145 ft | 572 kts | 37° |
| 2026-05-04 06:52 | 66.62286 | -145.13907 | 29166 ft | 572 kts | 45° |
| 2026-05-04 06:52 | 66.67524 | -144.98927 | 29151 ft | 567 kts | 45° |
| 2026-05-04 06:53 | 66.72694 | -144.83908 | 29143 ft | 562 kts | 45° |
| 2026-05-04 06:53 | 66.77798 | -144.68982 | 29143 ft | 561 kts | 45° |
| 2026-05-04 06:54 | 66.82882 | -144.53992 | 29156 ft | 559 kts | 45° |
| 2026-05-04 06:54 | 66.87911 | -144.39052 | 29160 ft | 558 kts | 45° |
| 2026-05-04 06:55 | 66.92895 | -144.24193 | 29152 ft | 556 kts | 46° |
| 2026-05-04 06:55 | 66.97904 | -144.09097 | 29159 ft | 555 kts | 46° |
| 2026-05-04 06:57 | 67.17481 | -143.49130 | 29118 ft | 542 kts | 47° |
| 2026-05-04 06:58 | 67.22167 | -143.34547 | 29097 ft | 538 kts | 48° |
| 2026-05-04 06:58 | 67.26923 | -143.19608 | 29079 ft | 536 kts | 48° |
| 2026-05-04 06:59 | 67.31659 | -143.04639 | 29076 ft | 536 kts | 48° |
| 2026-05-04 06:59 | 67.36351 | -142.89708 | 29077 ft | 535 kts | 48° |
| 2026-05-04 07:01 | 67.54950 | -142.29575 | 29094 ft | 527 kts | 49° |
| 2026-05-04 07:02 | 67.59413 | -142.14888 | 29112 ft | 525 kts | 50° |
| 2026-05-04 07:02 | 67.63924 | -141.99956 | 29130 ft | 521 kts | 50° |
| 2026-05-04 07:03 | 67.68400 | -141.85013 | 29133 ft | 518 kts | 50° |
| 2026-05-04 07:03 | 67.72827 | -141.70117 | 29130 ft | 517 kts | 50° |
| 2026-05-04 07:04 | 67.77241 | -141.55165 | 29118 ft | 516 kts | 50° |
| 2026-05-04 07:04 | 67.81656 | -141.40118 | 29106 ft | 518 kts | 50° |
| 2026-05-04 07:05 | 67.86088 | -141.24930 | 29103 ft | 519 kts | 51° |
| 2026-05-04 07:05 | 67.90415 | -141.09964 | 29096 ft | 522 kts | 51° |
| 2026-05-04 07:06 | 67.96598 | -140.86031 | 29125 ft | 526 kts | 55° |
| 2026-05-04 07:07 | 68.00560 | -140.69563 | 29142 ft | 527 kts | 55° |
| 2026-05-04 07:08 | 68.13940 | -140.12659 | 29150 ft | 514 kts | 57° |
| 2026-05-04 07:09 | 68.15826 | -140.04498 | 29140 ft | 513 kts | 57° |
| 2026-05-04 07:09 | 68.19228 | -139.89679 | 29122 ft | 513 kts | 57° |
| 2026-05-04 07:10 | 68.22969 | -139.73286 | 29115 ft | 514 kts | 57° |
| 2026-05-04 07:12 | 68.37780 | -139.07167 | 29109 ft | 513 kts | 58° |
| 2026-05-04 07:12 | 68.41436 | -138.90533 | 29099 ft | 512 kts | 58° |
| 2026-05-04 07:13 | 68.45081 | -138.73817 | 29094 ft | 511 kts | 58° |
| 2026-05-04 07:13 | 68.48693 | -138.57123 | 29077 ft | 512 kts | 58° |
| 2026-05-04 07:14 | 68.55906 | -138.23406 | 28875 ft | 514 kts | 58° |
| 2026-05-04 07:14 | 68.57694 | -138.14963 | 28865 ft | 512 kts | 58° |
| 2026-05-04 07:15 | 68.61261 | -137.98022 | 28944 ft | 511 kts | 58° |
| 2026-05-04 07:15 | 68.64798 | -137.81074 | 29017 ft | 512 kts | 58° |
| 2026-05-04 07:16 | 68.68323 | -137.64072 | 29063 ft | 512 kts | 58° |
| 2026-05-04 07:16 | 68.71841 | -137.46948 | 29097 ft | 513 kts | 59° |
| 2026-05-04 07:17 | 68.75343 | -137.29770 | 29108 ft | 512 kts | 59° |
| 2026-05-04 07:17 | 68.78831 | -137.12511 | 29112 ft | 512 kts | 60° |
| 2026-05-04 07:18 | 68.82274 | -136.95338 | 29113 ft | 512 kts | 60° |
| 2026-05-04 07:18 | 68.85530 | -136.78978 | 29117 ft | 511 kts | 60° |
| 2026-05-04 07:19 | 68.88953 | -136.61639 | 29118 ft | 511 kts | 60° |
| 2026-05-04 07:19 | 68.92345 | -136.44307 | 29122 ft | 511 kts | 60° |
| 2026-05-04 07:20 | 68.95730 | -136.26871 | 29122 ft | 511 kts | 61° |
| 2026-05-04 07:20 | 68.99094 | -136.09399 | 29126 ft | 511 kts | 61° |
| 2026-05-04 07:22 | 69.12382 | -135.38917 | 29127 ft | 509 kts | 61° |
| 2026-05-04 07:23 | 69.15640 | -135.21269 | 29122 ft | 508 kts | 62° |
| 2026-05-04 07:23 | 69.18883 | -135.03529 | 29117 ft | 508 kts | 62° |
| 2026-05-04 07:24 | 69.22080 | -134.85895 | 29115 ft | 507 kts | 62° |
| 2026-05-04 07:24 | 69.25291 | -134.68037 | 29112 ft | 507 kts | 63° |
| 2026-05-04 07:26 | 69.37826 | -133.96819 | 29132 ft | 502 kts | 64° |
| 2026-05-04 07:27 | 69.40910 | -133.78908 | 29140 ft | 502 kts | 64° |
| 2026-05-04 07:27 | 69.43948 | -133.61095 | 29144 ft | 500 kts | 64° |
| 2026-05-04 07:28 | 69.46976 | -133.43184 | 29140 ft | 500 kts | 64° |
| 2026-05-04 07:28 | 69.49983 | -133.25224 | 29129 ft | 500 kts | 65° |
| 2026-05-04 07:29 | 69.52958 | -133.07304 | 29120 ft | 500 kts | 65° |
| 2026-05-04 07:29 | 69.55935 | -132.89217 | 29113 ft | 499 kts | 65° |
| 2026-05-04 07:30 | 69.58883 | -132.71152 | 29109 ft | 499 kts | 65° |
| 2026-05-04 07:30 | 69.61806 | -132.53095 | 29109 ft | 498 kts | 65° |
| 2026-05-04 07:31 | 69.64691 | -132.35101 | 29113 ft | 497 kts | 65° |
| 2026-05-04 07:33 | 69.76019 | -131.62785 | 29102 ft | 492 kts | 67° |
| 2026-05-04 07:33 | 69.78803 | -131.44569 | 29098 ft | 492 kts | 67° |
| 2026-05-04 07:34 | 69.81558 | -131.26361 | 29096 ft | 492 kts | 68° |
| 2026-05-04 07:34 | 69.84300 | -131.08058 | 29094 ft | 493 kts | 68° |
| 2026-05-04 07:35 | 69.87014 | -130.89807 | 29099 ft | 494 kts | 68° |
| 2026-05-04 07:35 | 69.89735 | -130.71346 | 29104 ft | 494 kts | 68° |
| 2026-05-04 07:36 | 69.92434 | -130.52858 | 29116 ft | 494 kts | 68° |
| 2026-05-04 07:38 | 70.00124 | -129.86966 | 29142 ft | 488 kts | 85° |
| 2026-05-04 07:38 | 70.00498 | -129.77029 | 29137 ft | 487 kts | 85° |
| 2026-05-04 07:38 | 70.01103 | -129.57147 | 29129 ft | 487 kts | 86° |
| 2026-05-04 07:39 | 70.01633 | -129.37416 | 29129 ft | 487 kts | 86° |
| 2026-05-04 07:39 | 70.02119 | -129.17572 | 29131 ft | 487 kts | 87° |
| 2026-05-04 07:40 | 70.02580 | -128.97646 | 29133 ft | 488 kts | 87° |
| 2026-05-04 07:40 | 70.03012 | -128.77789 | 29134 ft | 489 kts | 87° |
| 2026-05-04 07:41 | 70.03424 | -128.57886 | 29133 ft | 490 kts | 87° |
| 2026-05-04 07:41 | 70.03817 | -128.37859 | 29132 ft | 490 kts | 87° |
| 2026-05-04 07:42 | 70.04186 | -128.17792 | 29129 ft | 490 kts | 88° |
| 2026-05-04 07:42 | 70.04530 | -127.97884 | 29126 ft | 489 kts | 88° |
| 2026-05-04 07:43 | 70.04851 | -127.77959 | 29127 ft | 489 kts | 88° |
| 2026-05-04 07:43 | 70.05152 | -127.58015 | 29129 ft | 488 kts | 88° |
| 2026-05-04 07:44 | 70.05429 | -127.38059 | 29133 ft | 489 kts | 88° |
| 2026-05-04 07:44 | 70.05683 | -127.18045 | 29133 ft | 490 kts | 89° |
| 2026-05-04 07:45 | 70.05915 | -126.97938 | 29137 ft | 491 kts | 89° |
| 2026-05-04 07:45 | 70.06123 | -126.77897 | 29143 ft | 492 kts | 89° |
| 2026-05-04 07:46 | 70.06312 | -126.57777 | 29147 ft | 493 kts | 89° |
| 2026-05-04 07:46 | 70.06479 | -126.37669 | 29153 ft | 493 kts | 89° |
| 2026-05-04 07:47 | 70.06625 | -126.17485 | 29163 ft | 492 kts | 90° |
| 2026-05-04 07:49 | 70.06974 | -125.37171 | 29246 ft | 491 kts | 90° |
| 2026-05-04 07:49 | 70.07001 | -125.17149 | 29250 ft | 492 kts | 90° |
| 2026-05-04 07:50 | 70.07008 | -124.96903 | 29248 ft | 493 kts | 90° |
| 2026-05-04 07:50 | 70.06992 | -124.76719 | 29247 ft | 495 kts | 90° |
| 2026-05-04 07:51 | 70.06953 | -124.56433 | 29241 ft | 495 kts | 90° |
| 2026-05-04 07:51 | 70.06892 | -124.36176 | 29239 ft | 495 kts | 90° |
| 2026-05-04 07:52 | 70.06812 | -124.15971 | 29237 ft | 494 kts | 91° |
| 2026-05-04 07:52 | 70.06708 | -123.95858 | 29238 ft | 493 kts | 91° |
| 2026-05-04 07:54 | 70.06053 | -123.15214 | 29238 ft | 493 kts | 92° |
| 2026-05-04 07:55 | 70.05830 | -122.95022 | 29240 ft | 495 kts | 91° |
| 2026-05-04 07:55 | 70.05585 | -122.74783 | 29233 ft | 497 kts | 91° |
| 2026-05-04 07:56 | 70.05317 | -122.54362 | 29240 ft | 498 kts | 91° |
| 2026-05-04 07:56 | 70.05027 | -122.34037 | 29278 ft | 498 kts | 92° |
| 2026-05-04 07:57 | 70.04717 | -122.13808 | 29314 ft | 498 kts | 92° |
| 2026-05-04 07:57 | 70.04379 | -121.93405 | 29319 ft | 498 kts | 92° |
| 2026-05-04 07:58 | 70.04022 | -121.73187 | 29313 ft | 497 kts | 92° |
| 2026-05-04 07:58 | 70.03638 | -121.52833 | 29308 ft | 496 kts | 92° |
| 2026-05-04 07:59 | 70.03231 | -121.32574 | 29294 ft | 496 kts | 93° |
| 2026-05-04 07:59 | 70.02803 | -121.12333 | 29288 ft | 497 kts | 93° |
| 2026-05-04 08:00 | 70.02348 | -120.92079 | 29284 ft | 498 kts | 93° |
| 2026-05-04 08:02 | 70.00296 | -120.10554 | 29279 ft | 502 kts | 94° |
| 2026-05-04 08:02 | 70.00096 | -119.90092 | 29256 ft | 500 kts | 80° |
| 2026-05-04 08:03 | 70.01517 | -119.70076 | 29277 ft | 500 kts | 78° |
| 2026-05-04 08:03 | 70.02709 | -119.49927 | 29258 ft | 499 kts | 78° |
| 2026-05-04 08:04 | 70.03810 | -119.29861 | 29241 ft | 500 kts | 79° |
| 2026-05-04 08:04 | 70.04882 | -119.09528 | 29234 ft | 500 kts | 79° |
| 2026-05-04 08:05 | 70.05913 | -118.89268 | 29227 ft | 501 kts | 79° |
| 2026-05-04 08:05 | 70.06926 | -118.68901 | 29226 ft | 501 kts | 79° |
| 2026-05-04 08:06 | 70.07907 | -118.48647 | 29228 ft | 502 kts | 79° |
| 2026-05-04 08:06 | 70.08876 | -118.28149 | 29227 ft | 503 kts | 80° |
| 2026-05-04 08:08 | 70.12508 | -117.46230 | 29228 ft | 502 kts | 80° |
| 2026-05-04 08:11 | 70.16138 | -116.53716 | 29186 ft | 504 kts | 81° |
| 2026-05-04 08:11 | 70.17245 | -116.22796 | 29187 ft | 503 kts | 82° |
| 2026-05-04 08:12 | 70.17944 | -116.02365 | 29191 ft | 502 kts | 82° |
| 2026-05-04 08:12 | 70.18625 | -115.81722 | 29198 ft | 502 kts | 82° |
| 2026-05-04 08:13 | 70.19281 | -115.61194 | 29202 ft | 502 kts | 82° |
| 2026-05-04 08:13 | 70.19912 | -115.40630 | 29196 ft | 502 kts | 82° |
| 2026-05-04 08:14 | 70.20518 | -115.20007 | 29183 ft | 502 kts | 83° |
| 2026-05-04 08:16 | 70.22722 | -114.37350 | 29155 ft | 504 kts | 82° |
| 2026-05-04 08:16 | 70.23199 | -114.17430 | 29156 ft | 504 kts | 83° |
| 2026-05-04 08:17 | 70.23676 | -113.96301 | 29171 ft | 504 kts | 83° |
| 2026-05-04 08:17 | 70.24123 | -113.75597 | 29208 ft | 504 kts | 83° |
| 2026-05-04 08:19 | 70.25671 | -112.92646 | 29277 ft | 504 kts | 84° |
| 2026-05-04 08:20 | 70.25996 | -112.71700 | 29279 ft | 504 kts | 84° |
| 2026-05-04 08:20 | 70.26296 | -112.50967 | 29280 ft | 504 kts | 83° |
| 2026-05-04 08:21 | 70.26530 | -112.33590 | 29282 ft | 504 kts | 84° |
| 2026-05-04 08:21 | 70.26822 | -112.10068 | 29284 ft | 504 kts | 84° |
| 2026-05-04 08:22 | 70.27054 | -111.89150 | 29286 ft | 505 kts | 84° |
| 2026-05-04 08:24 | 70.27738 | -111.06154 | 29297 ft | 505 kts | 85° |
| 2026-05-04 08:24 | 70.27850 | -110.85184 | 29300 ft | 505 kts | 85° |
| 2026-05-04 08:25 | 70.27937 | -110.64321 | 29295 ft | 505 kts | 85° |
| 2026-05-04 08:25 | 70.27998 | -110.43407 | 29296 ft | 504 kts | 86° |
| 2026-05-04 08:27 | 70.28005 | -109.60575 | 29342 ft | 505 kts | 87° |
| 2026-05-04 08:28 | 70.27945 | -109.39648 | 29346 ft | 505 kts | 87° |
| 2026-05-04 08:28 | 70.27864 | -109.18868 | 29343 ft | 505 kts | 88° |
| 2026-05-04 08:29 | 70.27760 | -108.97893 | 29343 ft | 504 kts | 88° |
| 2026-05-04 08:31 | 70.27094 | -108.14816 | 29337 ft | 502 kts | 89° |
| 2026-05-04 08:33 | 70.26045 | -107.31623 | 29352 ft | 502 kts | 90° |
| 2026-05-04 08:35 | 70.24622 | -106.48871 | 29346 ft | 499 kts | 91° |
| 2026-05-04 08:35 | 70.24206 | -106.28229 | 29355 ft | 500 kts | 91° |
| 2026-05-04 08:37 | 70.22807 | -105.66062 | 29575 ft | 507 kts | 92° |
| 2026-05-04 08:37 | 70.22547 | -105.55505 | 29688 ft | 507 kts | 92° |
| 2026-05-04 08:37 | 70.22287 | -105.45056 | 29805 ft | 507 kts | 92° |
| 2026-05-04 08:38 | 70.22021 | -105.34650 | 29924 ft | 508 kts | 93° |
| 2026-05-04 08:38 | 70.21745 | -105.24096 | 30038 ft | 508 kts | 93° |
| 2026-05-04 08:38 | 70.21463 | -105.13549 | 30162 ft | 508 kts | 93° |
| 2026-05-04 08:40 | 70.19334 | -104.40531 | 31019 ft | 506 kts | 94° |
| 2026-05-04 08:40 | 70.19000 | -104.29965 | 31118 ft | 505 kts | 95° |
| 2026-05-04 08:41 | 70.18330 | -104.09304 | 31286 ft | 503 kts | 95° |
| 2026-05-04 08:41 | 70.17633 | -103.88573 | 31348 ft | 504 kts | 95° |
| 2026-05-04 08:42 | 70.16908 | -103.67812 | 31357 ft | 503 kts | 95° |
| 2026-05-04 08:42 | 70.16166 | -103.47229 | 31362 ft | 503 kts | 95° |
| 2026-05-04 08:43 | 70.15398 | -103.26562 | 31368 ft | 504 kts | 96° |
| 2026-05-04 08:43 | 70.14605 | -103.05850 | 31372 ft | 503 kts | 96° |
| 2026-05-04 08:44 | 70.13789 | -102.85159 | 31373 ft | 503 kts | 96° |
| 2026-05-04 08:46 | 70.10307 | -102.03055 | 31391 ft | 502 kts | 98° |
| 2026-05-04 08:46 | 70.09379 | -101.82667 | 31393 ft | 502 kts | 98° |
| 2026-05-04 08:47 | 70.08418 | -101.62111 | 31394 ft | 502 kts | 98° |
| 2026-05-04 08:47 | 70.07443 | -101.41732 | 31398 ft | 502 kts | 98° |
| 2026-05-04 08:48 | 70.06440 | -101.21235 | 31400 ft | 502 kts | 99° |
| 2026-05-04 08:48 | 70.05418 | -101.00868 | 31407 ft | 502 kts | 99° |
| 2026-05-04 08:49 | 70.04374 | -100.80508 | 31411 ft | 502 kts | 99° |